Portada
METAR-TAF:

METAR-TAF

Aeroports :

Kerman, Iran

latitud: 30-15N, longitud: 056-58E, altitud: 1748 m

Observació

L'informe es va fer fa 35 minuts, a les 04:00 UTC
Vent 8 kt del Nord-Oest
Temperatura 29°C
Humitat 23%
Pressió 1018 hPa
Visibilitat 10 km o més
sense núvols per sota de 1500 mi sense presència de cumulonimbus.

METAR: OIKK 240400Z 32008KT CAVOK 29/06 Q1018 A3006

Hora: 09:05 (04:35 UTC)

Pronòstic

L'informe es va fer fa 5 hores i 25 minuts, a les 23:10 UTC
Pronòstic vàlid del 24 a les 00 UTC al 25 a les 06 UTC
Vent 6 kt del Est
Visibilitat: 7000 m
Escasses núvols a una alçada de 4000 ft
Temporalment
l' 24 a les 09 UTC al 24 a les 16 UTC
Vent 10 kt del Nord-Est amb ràfegues de 20 kt
Escasses núvols a una alçada de 3500 ft, Cumulonimbus.
Núvols disperses a una alçada de 4000 ft

TAF: OIKK 232310Z 2400/2506 08006KT 7000 FEW040 TEMPO 2409/2416 04010G20KT FEW035CB SCT040

Observacions i pronòstics meteorològics de més de 4000 aeroports (METAR i TAF).

Les estacions disponibles són els punts grocs i vermells al mapa.

Posi el ratolí al punt desitjat per veure el nom de l'estació.

Feu clic per veure les observacions i els pronòstics meteorològics.

Per canviar el mapa: feu clic els botons verds amb una creu de color negre per apropar; al botó verd amb un guió per allunyar la imatge; o en les fletxes verdes per a mapes adjacents.


METAR-TAF: